Map

Track Data

SID SEASON NUMBER BASIN SUBBASIN NAME ISO_TIME NATURE LAT LON WMO_WIND WMO_PRES WMO_AGENCY TRACK_TYPE DIST2LAND LANDFALL IFLAG USA_AGENCY USA_ATCF_ID USA_LAT USA_LON USA_RECORD USA_STATUS USA_WIND USA_PRES USA_SSHS USA_R34_NE USA_R34_SE USA_R34_SW USA_R34_NW USA_R50_NE USA_R50_SE USA_R50_SW USA_R50_NW USA_R64_NE USA_R64_SE USA_R64_SW USA_R64_NW USA_POCI USA_ROCI USA_RMW USA_EYE TOKYO_LAT TOKYO_LON TOKYO_GRADE TOKYO_WIND TOKYO_PRES TOKYO_R50_DIR TOKYO_R50_LONG TOKYO_R50_SHORT TOKYO_R30_DIR TOKYO_R30_LONG TOKYO_R30_SHORT TOKYO_LAND CMA_LAT CMA_LON CMA_CAT CMA_WIND CMA_PRES HKO_LAT HKO_LON HKO_CAT HKO_WIND HKO_PRES NEWDELHI_LAT NEWDELHI_LON NEWDELHI_GRADE NEWDELHI_WIND NEWDELHI_PRES NEWDELHI_CI NEWDELHI_DP NEWDELHI_POCI REUNION_LAT REUNION_LON REUNION_TYPE REUNION_WIND REUNION_PRES REUNION_TNUM REUNION_CI REUNION_RMW REUNION_R34_NE REUNION_R34_SE REUNION_R34_SW REUNION_R34_NW REUNION_R50_NE REUNION_R50_SE REUNION_R50_SW REUNION_R50_NW REUNION_R64_NE REUNION_R64_SE REUNION_R64_SW REUNION_R64_NW BOM_LAT BOM_LON BOM_TYPE BOM_WIND BOM_PRES BOM_TNUM BOM_CI BOM_RMW BOM_R34_NE BOM_R34_SE BOM_R34_SW BOM_R34_NW BOM_R50_NE BOM_R50_SE BOM_R50_SW BOM_R50_NW BOM_R64_NE BOM_R64_SE BOM_R64_SW BOM_R64_NW BOM_ROCI BOM_POCI BOM_EYE BOM_POS_METHOD BOM_PRES_METHOD NADI_LAT NADI_LON NADI_CAT NADI_WIND NADI_PRES WELLINGTON_LAT WELLINGTON_LON WELLINGTON_WIND WELLINGTON_PRES DS824_LAT DS824_LON DS824_STAGE DS824_WIND DS824_PRES TD9636_LAT TD9636_LON TD9636_STAGE TD9636_WIND TD9636_PRES TD9635_LAT TD9635_LON TD9635_WIND TD9635_PRES TD9635_ROCI NEUMANN_LAT NEUMANN_LON NEUMANN_CLASS NEUMANN_WIND NEUMANN_PRES MLC_LAT MLC_LON MLC_CLASS MLC_WIND MLC_PRES USA_GUST BOM_GUST BOM_GUST_PER REUNION_GUST REUNION_GUST_PER USA_SEAHGT USA_SEARAD_NE USA_SEARAD_SE USA_SEARAD_SW USA_SEARAD_NW STORM_SPEED STORM_DIR
2000258N22138 2000 82 WP MM SONAMU 2000-09-14 00:00:00 TS 21.5000 138.300 main 1300 1296 O_____________ jtwc_wp WP252000 21.5000 138.300 TD 20 -1 10 67
2000258N22138 2000 82 WP MM SONAMU 2000-09-14 03:00:00 TS 21.6879 138.780 main 1308 1308 P_____________ WP252000 21.6879 138.780 TD 22 -1 10 80
2000258N22138 2000 82 WP MM SONAMU 2000-09-14 06:00:00 TS 21.6800 139.400 998 tokyo main 1342 1339 OO_O__________ jtwc_wp WP252000 21.9000 139.200 TD 25 -1 21.9000 139.500 2 998 0 0 0 20.8000 139.900 TD 30 1000 9 78
2000258N22138 2000 82 WP MM SONAMU 2000-09-14 09:00:00 TS 21.8755 139.703 main 1339 1324 PP_P__________ WP252000 22.1498 139.523 TD 27 -1 21.9599 139.720 2 999 0 0 21.2425 140.047 TD 30 1000 7 52
2000258N22138 2000 82 WP MM SONAMU 2000-09-14 12:00:00 TS 22.1000 139.980 1000 tokyo main 1327 1301 OO_O__________ jtwc_wp WP252000 22.4000 139.800 TD 30 -1 22.1000 140.000 2 1000 0 0 0 21.7000 140.200 TD 30 1000 7 46
2000258N22138 2000 82 WP MM SONAMU 2000-09-14 15:00:00 TS 22.3859 140.282 main 1304 1279 PP_P__________ WP252000 22.6150 140.123 TD 32 -1 22.3702 140.365 2 1000 0 0 22.1725 140.357 TD 30 1000 8 40
2000258N22138 2000 82 WP MM SONAMU 2000-09-14 18:00:00 TS 22.7000 140.531 1000 tokyo main 1279 1255 OOOO__________ jtwc_wp WP252000 22.8000 140.400 TS 35 0 22.7000 140.700 2 1000 0 0 0 22.7000 140.500 1 29 1000 22.6000 140.500 TD 30 1000 7 33
2000258N22138 2000 82 WP MM SONAMU 2000-09-14 21:00:00 TS 22.9877 140.699 main 1255 1238 PPPP__________ WP252000 22.9574 140.573 TS 37 0 23.0408 140.908 2 1000 0 0 23.0426 140.730 1 29 1000 22.9375 140.600 TD 30 1000 6 27
2000258N22138 2000 82 WP MM SONAMU 2000-09-15 00:00:00 TS 23.2200 140.820 1000 tokyo main 1238 1222 OOOO__________ jtwc_wp WP252000 23.1000 140.700 TS 40 0 23.3000 141.000 2 1000 0 0 0 23.3000 140.900 1 29 1000 23.2000 140.700 TD 30 1000 4 28
2000258N22138 2000 82 WP MM SONAMU 2000-09-15 03:00:00 TS 23.3719 140.918 35 996 tokyo main 1222 1215 POPP__________ WP252000 23.2425 140.850 TS 40 0 23.4000 141.000 3 35 996 0 3 100 50 0 23.4224 140.973 1 33 997 23.4225 140.850 TD 32 997 3 28
2000258N22138 2000 82 WP MM SONAMU 2000-09-15 06:00:00 TS 23.5250 141.000 40 994 tokyo main 1215 1199 OOOO__________ jtwc_wp WP252000 23.4000 141.000 TS 40 0 23.6000 141.000 3 40 994 0 3 120 60 0 23.5000 141.000 2 38 995 23.6000 141.000 TS 35 994 4 27
2000258N22138 2000 82 WP MM SONAMU 2000-09-15 09:00:00 TS 23.6884 141.092 main 1199 1189 PPPP__________ WP252000 23.5925 141.157 TS 42 0 23.7688 141.081 3 42 993 0 3 130 65 23.6425 141.028 2 43 992 23.7500 141.100 TS 40 992 4 29
2000258N22138 2000 82 WP MM SONAMU 2000-09-15 12:00:00 TS 23.8500 141.200 45 992 tokyo main 1183 1177 OOOO__________ jtwc_wp WP252000 23.8000 141.300 TS 45 0 23.9000 141.200 3 45 992 0 3 140 70 0 23.8000 141.100 3 48 990 23.9000 141.200 TS 45 990 4 37
2000258N22138 2000 82 WP MM SONAMU 2000-09-15 15:00:00 TS 23.9863 141.336 45 992 tokyo main 1177 1166 POPP__________ WP252000 23.9625 141.408 TS 52 0 24.0000 141.300 3 45 992 0 3 140 70 0 23.9126 141.285 3 48 987 24.0700 141.350 TS 50 985 4 38
2000258N22138 2000 82 WP MM SONAMU 2000-09-15 18:00:00 TS 24.2000 141.500 45 990 tokyo main 1166 1146 OOOO__________ jtwc_wp WP252000 24.2000 141.500 TS 60 0 24.2000 141.500 3 45 990 0 3 160 80 0 24.1000 141.500 3 48 985 24.3000 141.500 STS 55 980 6 31
2000258N22138 2000 82 WP MM SONAMU 2000-09-15 21:00:00 TS 24.5088 141.683 45 990 tokyo main 1146 1107 POPP__________ WP252000 24.6050 141.622 TS 62 0 24.4000 141.800 3 45 990 0 3 160 80 0 24.4325 141.687 3 53 982 24.5975 141.622 STS 55 980 8 16
2000258N22138 2000 82 WP MM SONAMU 2000-09-16 00:00:00 TS 24.9750 141.750 45 990 tokyo main 1102 1049 OOOO__________ jtwc_wp WP252000 25.1000 141.700 TY 65 1 24.9000 141.800 3 45 990 0 3 160 80 0 24.9000 141.800 3 58 980 25.0000 141.700 STS 55 980 10 3
2000258N22138 2000 82 WP MM SONAMU 2000-09-16 03:00:00 TS 25.5150 141.744 45 990 tokyo main 1049 998 POPP__________ WP252000 25.5775 141.673 TY 65 1 25.5000 141.800 3 45 990 0 2 160 80 0 25.4700 141.780 3 61 977 25.5125 141.723 STS 55 980 11 356
2000258N22138 2000 82 WP MM SONAMU 2000-09-16 06:00:00 TS 26.0750 141.675 45 990 tokyo main 988 931 OOOO__________ jtwc_wp WP252000 26.1000 141.600 TY 65 1 26.0000 141.700 3 45 990 0 2 160 80 0 26.1000 141.700 4 64 975 26.1000 141.700 STS 55 980 11 356
2000258N22138 2000 82 WP MM SONAMU 2000-09-16 09:00:00 TS 26.6413 141.645 45 990 tokyo main 931 856 POPP__________ WP252000 26.6475 141.550 TY 67 1 26.6000 141.700 3 45 990 0 2 160 80 0 26.6625 141.665 4 64 975 26.6550 141.665 STS 55 980 12 356
2000258N22138 2000 82 WP MM SONAMU 2000-09-16 12:00:00 TS 27.3000 141.575 45 990 tokyo main 856 768 OOOO__________ jtwc_wp WP252000 27.3000 141.500 TY 70 1 27.3000 141.600 3 45 990 0 2 160 80 0 27.3000 141.600 4 64 975 27.3000 141.600 STS 55 980 15 355
2000258N22138 2000 82 WP MM SONAMU 2000-09-16 15:00:00 TS 28.1426 141.491 45 990 tokyo main 768 671 POPP__________ WP252000 28.0901 141.435 TY 70 1 28.3000 141.600 3 45 990 0 2 160 80 0 28.0901 141.436 4 64 975 28.0901 141.493 STS 55 980 18 356
2000258N22138 2000 82 WP MM SONAMU 2000-09-16 18:00:00 TS 29.0500 141.425 45 990 tokyo main 660 575 OOOO__________ jtwc_wp WP252000 29.0000 141.400 TY 70 1 29.2000 141.600 3 45 990 0 2 160 80 0 29.0000 141.300 4 64 975 29.0000 141.400 STS 55 980 19 357
2000258N22138 2000 82 WP MM SONAMU 2000-09-16 21:00:00 TS 29.9949 141.377 45 990 tokyo main 564 467 POPP__________ WP252000 29.9624 141.398 TY 70 1 30.1000 141.500 3 45 990 0 2 160 80 0 29.9549 141.276 4 61 977 29.9624 141.334 STS 55 980 19 0
2000258N22138 2000 82 WP MM SONAMU 2000-09-17 00:00:00 TS 30.9750 141.450 50 985 tokyo main 459 363 OOOO__________ jtwc_wp WP252000 31.0000 141.500 TY 70 1 30.9000 141.500 4 50 985 0 2 180 90 0 31.0000 141.400 3 58 980 31.0000 141.400 STS 55 980 21 8
2000258N22138 2000 82 WP MM SONAMU 2000-09-17 03:00:00 TS 32.0788 141.725 55 980 tokyo main 353 272 POPP__________ WP252000 32.0474 141.726 TY 72 1 32.1000 141.800 4 55 980 2 60 20 2 200 100 0 32.1126 141.690 3 58 980 32.0551 141.683 STS 55 980 23 14
2000258N22138 2000 82 WP MM SONAMU 2000-09-17 06:00:00 TS 33.2500 142.100 55 980 tokyo main 262 205 OOOO__________ jtwc_wp WP252000 33.2000 142.100 TY 75 1 33.3000 142.100 4 55 980 2 60 20 2 200 100 0 33.3000 142.100 3 58 980 33.2000 142.100 STS 55 980 25 16
2000258N22138 2000 82 WP MM SONAMU 2000-09-17 09:00:00 TS 34.5087 142.553 55 980 tokyo main 204 177 POPP__________ WP252000 34.5052 142.605 TY 75 1 34.6000 142.600 4 55 980 2 60 20 2 200 100 0 34.4896 142.501 3 58 980 34.4398 142.508 STS 55 980 27 17
2000258N22138 2000 82 WP MM SONAMU 2000-09-17 12:00:00 TS 35.8500 143.050 55 980 tokyo main 199 199 OOOO__________ jtwc_wp WP252000 35.9000 143.200 TY 75 1 35.9000 143.000 4 55 980 2 60 20 2 200 100 0 35.8000 143.000 3 58 980 35.8000 143.000 STS 55 980 29 17
2000258N22138 2000 82 WP MM SONAMU 2000-09-17 15:00:00 TS 37.2887 143.618 main 215 208 PPPP__________ WP252000 37.2841 143.752 TY 75 1 37.3049 143.542 4 55 980 2 60 20 2 200 100 37.2968 143.614 3 58 980 37.2691 143.564 STS 57 977 31 19
2000258N22138 2000 82 WP MM SONAMU 2000-09-17 18:00:00 TS 38.8000 144.350 55 980 tokyo main 212 205 OOOO__________ jtwc_wp WP252000 38.7000 144.400 TY 75 1 38.8000 144.300 4 55 980 3 60 20 3 200 100 0 38.9000 144.400 3 58 980 38.8000 144.300 STS 60 975 33 23
2000258N22138 2000 82 WP MM SONAMU 2000-09-17 21:00:00 TS 40.3202 145.269 main 249 168 PPPP__________ WP252000 40.1415 145.207 TY 75 1 40.3575 145.311 4 52 982 3 3 200 100 40.5056 145.328 3 56 982 40.2761 145.230 STS 57 977 35 27
2000258N22138 2000 82 WP MM SONAMU 2000-09-18 00:00:00 TS 41.8714 146.414 50 985 tokyo main 162 131 OOOO__________ jtwc_wp WP252000 41.6000 146.200 TY 75 1 41.9000 146.500 4 50 985 0 3 200 100 0 42.1000 146.500 3 54 985 41.8000 146.400 STS 55 980 36 30
2000258N22138 2000 82 WP MM SONAMU 2000-09-18 03:00:00 TS 43.4107 147.674 main 134 60 PPPP__________ WP252000 43.0558 147.381 TY 70 1 43.3454 147.584 4 986 0 3 43.6465 147.843 3 51 987 43.4248 147.809 STS 52 982 36 34
2000258N22138 2000 82 WP MM SONAMU 2000-09-18 06:00:00 MX 44.8556 149.211 988 tokyo main 54 32 OOOO__________ jtwc_wp WP252000 44.5000 148.700 TY 65 1 44.7000 149.000 6 988 0 0 0 45.1000 149.600 3 48 990 45.1000 149.400 STS 50 985 38 44
2000258N22138 2000 82 WP MM SONAMU 2000-09-18 09:00:00 MX 46.1246 151.429 main 76 76 _PP___________ WP252000 TY -1 45.9814 151.189 6 989 0 0 46.4109 151.909 3 43 992 STS 39 54
2000258N22138 2000 82 WP MM SONAMU 2000-09-18 12:00:00 MX 47.2000 153.800 990 tokyo main 285 222 _OO___________ 47.1000 153.600 6 990 0 0 0 47.6000 154.600 2 38 995 33 55
2000258N22138 2000 82 WP MM SONAMU 2000-09-18 15:00:00 ET 48.0440 155.459 main 222 177 _P____________ 48.0440 155.459 6 993 0 0 2 30 56
2000258N22138 2000 82 WP MM SONAMU 2000-09-18 18:00:00 ET 48.9000 157.500 996 tokyo main 184 184 _O____________ 48.9000 157.500 6 996 0 0 0 36 63
2000258N22138 2000 82 WP MM SONAMU 2000-09-18 21:00:00 ET 49.6892 160.396 main 274 274 _P____________ 49.6892 160.396 6 995 0 0 42 68
2000258N22138 2000 82 WP MM SONAMU 2000-09-19 00:00:00 ET 50.5000 163.600 994 tokyo main 374 374 _O____________ 50.5000 163.600 6 994 0 0 0 44 66
2000258N22138 2000 82 WP MM SONAMU 2000-09-19 03:00:00 ET 51.4676 166.726 main 467 467 _P____________ 51.4676 166.726 6 993 0 0 43 62
2000258N22138 2000 82 WP MM SONAMU 2000-09-19 06:00:00 ET 52.5000 169.700 992 tokyo main 554 554 _O____________ 52.5000 169.700 6 992 0 0 0 41 59
2000258N22138 2000 82 WP MM SONAMU 2000-09-19 09:00:00 ET 53.5828 172.569 main 651 651 _P____________ 53.5828 172.569 6 990 0 0 36 57
2000258N22138 2000 82 WP MM SONAMU 2000-09-19 12:00:00 ET 54.5000 174.800 988 tokyo main 655 633 _O____________ 54.5000 174.800 6 988 0 0 0 24 53
2000258N22138 2000 82 WP MM SONAMU 2000-09-19 15:00:00 ET 55.0366 175.904 main 636 614 _P____________ 55.0366 175.904 6 987 0 0 13 47
2000258N22138 2000 82 WP MM SONAMU 2000-09-19 18:00:00 ET 55.4000 176.500 986 tokyo main 618 614 _O____________ 55.4000 176.500 6 986 0 0 0 12 52
2000258N22138 2000 82 WP MM SONAMU 2000-09-19 21:00:00 ET 55.7967 177.588 main 624 623 _P____________ 55.7967 177.588 6 985 0 0 13 58
2000258N22138 2000 82 WP MM SONAMU 2000-09-20 00:00:00 ET 56.1000 178.500 984 tokyo main 637 631 _O____________ 56.1000 178.500 6 984 0 0 0 8 56
2000258N22138 2000 82 WP MM SONAMU 2000-09-20 03:00:00 ET 56.2553 178.793 main 629 624 _P____________ 56.2553 178.793 6 984 0 0 4 43
2000258N22138 2000 82 WP MM SONAMU 2000-09-20 06:00:00 ET 56.4000 179.000 984 tokyo main 627 622 _O____________ 56.4000 179.000 6 984 0 0 0 6 48
2000258N22138 2000 82 WP MM SONAMU 2000-09-20 09:00:00 ET 56.6626 179.606 main 620 590 _P____________ 56.6626 179.606 6 985 0 0 10 54
2000258N22138 2000 82 EP CP SONAMU 2000-09-20 12:00:00 ET 57.0000 180.500 main 591 _O____________ 57.0000 180.500 6 986 0 0 0 12 55

Digital Typhoon Data and Search

About IBTrACS Database

This database is a web-friendly format of International Best Track Archive for Climate Stewardship (IBTrACS), a global best track data archive curated by NOAA dating back to 1842.

Updated: 2021-11-26